sensor_id;sensor_type;location;lat;lon;timestamp;temperature;humidity
53314;DHT22;39202;51.468;7.146;2023-06-22T00:00:58;34.40;36.20
53314;DHT22;39202;51.468;7.146;2023-06-22T00:06:01;34.50;36.20
53314;DHT22;39202;51.468;7.146;2023-06-22T00:11:02;34.40;36.20
53314;DHT22;39202;51.468;7.146;2023-06-22T00:16:06;34.40;36.20
53314;DHT22;39202;51.468;7.146;2023-06-22T00:21:07;34.40;36.20
53314;DHT22;39202;51.468;7.146;2023-06-22T00:26:09;34.40;36.20
53314;DHT22;39202;51.468;7.146;2023-06-22T00:31:13;34.50;36.20
53314;DHT22;39202;51.468;7.146;2023-06-22T00:36:15;34.40;36.30
53314;DHT22;39202;51.468;7.146;2023-06-22T00:41:18;34.40;36.20
53314;DHT22;39202;51.468;7.146;2023-06-22T00:46:21;34.40;36.20
53314;DHT22;39202;51.468;7.146;2023-06-22T00:51:24;34.40;36.20
53314;DHT22;39202;51.468;7.146;2023-06-22T00:56:26;34.40;36.20
53314;DHT22;39202;51.468;7.146;2023-06-22T01:01:31;34.40;36.20
53314;DHT22;39202;51.468;7.146;2023-06-22T01:06:41;34.40;36.20
53314;DHT22;39202;51.468;7.146;2023-06-22T01:11:50;34.30;36.10
53314;DHT22;39202;51.468;7.146;2023-06-22T01:16:56;34.30;36.10
53314;DHT22;39202;51.468;7.146;2023-06-22T01:22:00;34.40;36.20
53314;DHT22;39202;51.468;7.146;2023-06-22T01:27:12;34.40;36.20
53314;DHT22;39202;51.468;7.146;2023-06-22T01:32:18;34.30;36.10
53314;DHT22;39202;51.468;7.146;2023-06-22T01:37:21;34.30;36.10
53314;DHT22;39202;51.468;7.146;2023-06-22T01:42:24;34.30;36.10
53314;DHT22;39202;51.468;7.146;2023-06-22T01:47:27;34.30;36.10
53314;DHT22;39202;51.468;7.146;2023-06-22T01:52:29;34.20;36.00
53314;DHT22;39202;51.468;7.146;2023-06-22T01:57:34;34.30;36.80
53314;DHT22;39202;51.468;7.146;2023-06-22T02:02:42;34.30;36.10
53314;DHT22;39202;51.468;7.146;2023-06-22T02:07:46;34.30;36.10
53314;DHT22;39202;51.468;7.146;2023-06-22T02:12:48;34.30;36.10
53314;DHT22;39202;51.468;7.146;2023-06-22T02:17:53;34.30;36.10
53314;DHT22;39202;51.468;7.146;2023-06-22T02:22:54;34.30;36.10
53314;DHT22;39202;51.468;7.146;2023-06-22T02:27:56;34.30;36.10
53314;DHT22;39202;51.468;7.146;2023-06-22T02:32:59;34.30;36.10
53314;DHT22;39202;51.468;7.146;2023-06-22T02:38:02;34.30;36.10
53314;DHT22;39202;51.468;7.146;2023-06-22T02:43:04;34.30;36.10
53314;DHT22;39202;51.468;7.146;2023-06-22T02:48:07;34.30;36.20
53314;DHT22;39202;51.468;7.146;2023-06-22T02:53:09;34.20;36.10
53314;DHT22;39202;51.468;7.146;2023-06-22T02:58:11;34.20;36.10
53314;DHT22;39202;51.468;7.146;2023-06-22T03:03:14;34.20;36.10
53314;DHT22;39202;51.468;7.146;2023-06-22T03:08:15;34.20;36.10
53314;DHT22;39202;51.468;7.146;2023-06-22T03:13:17;34.20;36.10
53314;DHT22;39202;51.468;7.146;2023-06-22T03:18:20;34.20;36.10
53314;DHT22;39202;51.468;7.146;2023-06-22T03:23:22;34.20;36.10
53314;DHT22;39202;51.468;7.146;2023-06-22T03:28:24;34.20;36.10
53314;DHT22;39202;51.468;7.146;2023-06-22T03:33:27;34.20;36.10
53314;DHT22;39202;51.468;7.146;2023-06-22T03:38:29;34.20;36.20
53314;DHT22;39202;51.468;7.146;2023-06-22T03:43:31;34.20;36.10
53314;DHT22;39202;51.468;7.146;2023-06-22T03:48:34;34.20;36.20
53314;DHT22;39202;51.468;7.146;2023-06-22T03:53:36;34.10;36.10
53314;DHT22;39202;51.468;7.146;2023-06-22T03:58:38;34.10;36.10
53314;DHT22;39202;51.468;7.146;2023-06-22T04:03:44;34.10;36.10
53314;DHT22;39202;51.468;7.146;2023-06-22T04:08:48;34.10;36.10
53314;DHT22;39202;51.468;7.146;2023-06-22T04:13:51;34.10;36.10
53314;DHT22;39202;51.468;7.146;2023-06-22T04:18:54;34.10;36.10
53314;DHT22;39202;51.468;7.146;2023-06-22T04:23:56;34.10;36.20
53314;DHT22;39202;51.468;7.146;2023-06-22T04:28:57;34.10;36.20
53314;DHT22;39202;51.468;7.146;2023-06-22T04:34:00;34.20;36.20
53314;DHT22;39202;51.468;7.146;2023-06-22T04:39:07;34.10;36.10
53314;DHT22;39202;51.468;7.146;2023-06-22T04:44:10;34.10;36.20
53314;DHT22;39202;51.468;7.146;2023-06-22T04:49:13;34.10;36.10
53314;DHT22;39202;51.468;7.146;2023-06-22T04:54:15;34.10;36.10
53314;DHT22;39202;51.468;7.146;2023-06-22T04:59:16;34.10;36.10
53314;DHT22;39202;51.468;7.146;2023-06-22T05:04:21;34.10;36.10
53314;DHT22;39202;51.468;7.146;2023-06-22T05:09:23;34.10;36.20
53314;DHT22;39202;51.468;7.146;2023-06-22T05:14:25;34.10;36.20
53314;DHT22;39202;51.468;7.146;2023-06-22T05:19:28;34.10;36.20
53314;DHT22;39202;51.468;7.146;2023-06-22T05:24:33;34.00;36.10
53314;DHT22;39202;51.468;7.146;2023-06-22T05:29:35;34.00;36.10
53314;DHT22;39202;51.468;7.146;2023-06-22T05:34:39;34.00;36.10
53314;DHT22;39202;51.468;7.146;2023-06-22T05:39:40;34.00;36.20
53314;DHT22;39202;51.468;7.146;2023-06-22T05:44:42;34.00;36.10
53314;DHT22;39202;51.468;7.146;2023-06-22T05:49:45;34.00;36.20
53314;DHT22;39202;51.468;7.146;2023-06-22T05:54:47;34.00;36.20
53314;DHT22;39202;51.468;7.146;2023-06-22T05:59:49;34.00;36.20
53314;DHT22;39202;51.468;7.146;2023-06-22T06:04:52;34.00;36.20
53314;DHT22;39202;51.468;7.146;2023-06-22T06:09:54;34.00;36.20
53314;DHT22;39202;51.468;7.146;2023-06-22T06:14:56;34.30;36.40
53314;DHT22;39202;51.468;7.146;2023-06-22T06:20:00;34.00;36.80
53314;DHT22;39202;51.468;7.146;2023-06-22T06:25:03;34.00;36.20
53314;DHT22;39202;51.468;7.146;2023-06-22T06:30:07;34.00;36.20
53314;DHT22;39202;51.468;7.146;2023-06-22T06:35:11;34.00;36.20
53314;DHT22;39202;51.468;7.146;2023-06-22T06:40:15;33.90;36.20
53314;DHT22;39202;51.468;7.146;2023-06-22T06:45:18;33.90;36.20
53314;DHT22;39202;51.468;7.146;2023-06-22T06:50:21;33.90;36.20
53314;DHT22;39202;51.468;7.146;2023-06-22T06:55:23;33.90;36.20
53314;DHT22;39202;51.468;7.146;2023-06-22T07:00:25;33.90;36.30
53314;DHT22;39202;51.468;7.146;2023-06-22T07:05:28;33.90;36.30
53314;DHT22;39202;51.468;7.146;2023-06-22T07:10:30;33.90;36.30
53314;DHT22;39202;51.468;7.146;2023-06-22T07:15:32;33.90;36.30
53314;DHT22;39202;51.468;7.146;2023-06-22T07:20:35;33.90;36.30
53314;DHT22;39202;51.468;7.146;2023-06-22T07:25:37;33.90;36.30
53314;DHT22;39202;51.468;7.146;2023-06-22T07:30:39;33.90;36.30
53314;DHT22;39202;51.468;7.146;2023-06-22T07:35:42;33.90;36.30
53314;DHT22;39202;51.468;7.146;2023-06-22T07:40:45;33.90;36.30
53314;DHT22;39202;51.468;7.146;2023-06-22T07:45:48;33.90;36.30
53314;DHT22;39202;51.468;7.146;2023-06-22T07:50:53;33.90;36.30
53314;DHT22;39202;51.468;7.146;2023-06-22T07:55:55;33.90;36.40
53314;DHT22;39202;51.468;7.146;2023-06-22T08:00:57;33.90;36.30
53314;DHT22;39202;51.468;7.146;2023-06-22T08:06:00;33.90;36.30
53314;DHT22;39202;51.468;7.146;2023-06-22T08:11:02;33.90;36.30
53314;DHT22;39202;51.468;7.146;2023-06-22T08:16:04;33.90;36.30
53314;DHT22;39202;51.468;7.146;2023-06-22T08:21:09;33.90;36.30
53314;DHT22;39202;51.468;7.146;2023-06-22T08:26:12;33.90;36.30
53314;DHT22;39202;51.468;7.146;2023-06-22T08:31:13;33.90;36.30
53314;DHT22;39202;51.468;7.146;2023-06-22T08:36:17;33.90;36.30
53314;DHT22;39202;51.468;7.146;2023-06-22T08:41:19;33.90;36.40
53314;DHT22;39202;51.468;7.146;2023-06-22T08:46:21;33.90;36.30
53314;DHT22;39202;51.468;7.146;2023-06-22T08:51:31;33.90;36.30
53314;DHT22;39202;51.468;7.146;2023-06-22T08:56:33;33.90;36.40
53314;DHT22;39202;51.468;7.146;2023-06-22T09:01:35;33.90;36.40
53314;DHT22;39202;51.468;7.146;2023-06-22T09:06:38;33.90;36.30
53314;DHT22;39202;51.468;7.146;2023-06-22T09:11:45;33.90;36.40
53314;DHT22;39202;51.468;7.146;2023-06-22T09:16:47;34.00;36.40
53314;DHT22;39202;51.468;7.146;2023-06-22T09:21:50;33.90;36.30
53314;DHT22;39202;51.468;7.146;2023-06-22T09:26:52;34.00;36.40
53314;DHT22;39202;51.468;7.146;2023-06-22T09:31:54;34.00;36.40
53314;DHT22;39202;51.468;7.146;2023-06-22T09:36:57;34.00;36.50
53314;DHT22;39202;51.468;7.146;2023-06-22T09:42:01;34.00;36.50
53314;DHT22;39202;51.468;7.146;2023-06-22T09:47:03;34.00;36.50
53314;DHT22;39202;51.468;7.146;2023-06-22T09:52:07;34.00;36.60
53314;DHT22;39202;51.468;7.146;2023-06-22T09:57:08;34.10;36.60
53314;DHT22;39202;51.468;7.146;2023-06-22T10:02:10;34.80;37.00
53314;DHT22;39202;51.468;7.146;2023-06-22T10:07:13;34.10;36.50
53314;DHT22;39202;51.468;7.146;2023-06-22T10:12:15;34.10;36.50
53314;DHT22;39202;51.468;7.146;2023-06-22T10:17:17;34.20;36.50
53314;DHT22;39202;51.468;7.146;2023-06-22T10:22:20;34.20;36.50
53314;DHT22;39202;51.468;7.146;2023-06-22T10:27:22;34.20;36.60
53314;DHT22;39202;51.468;7.146;2023-06-22T10:32:24;34.20;37.20
53314;DHT22;39202;51.468;7.146;2023-06-22T10:37:27;34.30;37.70
53314;DHT22;39202;51.468;7.146;2023-06-22T10:42:28;34.20;38.00
53314;DHT22;39202;51.468;7.146;2023-06-22T10:47:30;34.20;38.40
53314;DHT22;39202;51.468;7.146;2023-06-22T10:52:33;34.20;38.50
53314;DHT22;39202;51.468;7.146;2023-06-22T10:57:35;34.20;38.80
53314;DHT22;39202;51.468;7.146;2023-06-22T11:02:37;34.10;38.80
53314;DHT22;39202;51.468;7.146;2023-06-22T11:07:43;34.10;38.80
53314;DHT22;39202;51.468;7.146;2023-06-22T11:12:45;34.10;39.10
53314;DHT22;39202;51.468;7.146;2023-06-22T11:17:46;34.10;39.00
53314;DHT22;39202;51.468;7.146;2023-06-22T11:22:49;34.10;39.10
53314;DHT22;39202;51.468;7.146;2023-06-22T11:27:51;34.10;39.20
53314;DHT22;39202;51.468;7.146;2023-06-22T11:32:54;34.00;39.40
53314;DHT22;39202;51.468;7.146;2023-06-22T11:37:57;34.00;39.70
53314;DHT22;39202;51.468;7.146;2023-06-22T11:42:59;34.00;39.90
53314;DHT22;39202;51.468;7.146;2023-06-22T11:48:00;34.10;39.80
53314;DHT22;39202;51.468;7.146;2023-06-22T11:53:03;34.10;39.80
53314;DHT22;39202;51.468;7.146;2023-06-22T11:58:05;34.10;39.90
53314;DHT22;39202;51.468;7.146;2023-06-22T12:03:07;34.10;39.80
53314;DHT22;39202;51.468;7.146;2023-06-22T12:08:11;34.10;39.70
53314;DHT22;39202;51.468;7.146;2023-06-22T12:13:14;34.10;39.70
53314;DHT22;39202;51.468;7.146;2023-06-22T12:18:16;34.10;39.60
53314;DHT22;39202;51.468;7.146;2023-06-22T12:23:22;34.10;39.60
53314;DHT22;39202;51.468;7.146;2023-06-22T12:28:23;34.10;39.60
53314;DHT22;39202;51.468;7.146;2023-06-22T12:33:25;34.10;39.50
53314;DHT22;39202;51.468;7.146;2023-06-22T12:38:28;34.10;39.50
53314;DHT22;39202;51.468;7.146;2023-06-22T12:43:30;34.10;39.50
53314;DHT22;39202;51.468;7.146;2023-06-22T12:48:32;34.10;39.40
53314;DHT22;39202;51.468;7.146;2023-06-22T12:53:35;34.10;39.40
53314;DHT22;39202;51.468;7.146;2023-06-22T12:58:37;34.10;39.40
53314;DHT22;39202;51.468;7.146;2023-06-22T13:03:38;34.10;39.40
53314;DHT22;39202;51.468;7.146;2023-06-22T13:08:41;34.10;39.30
53314;DHT22;39202;51.468;7.146;2023-06-22T13:13:44;34.10;39.40
53314;DHT22;39202;51.468;7.146;2023-06-22T13:18:46;34.10;39.40
53314;DHT22;39202;51.468;7.146;2023-06-22T13:23:49;34.10;39.40
53314;DHT22;39202;51.468;7.146;2023-06-22T13:28:51;34.10;39.40
53314;DHT22;39202;51.468;7.146;2023-06-22T13:33:52;34.10;39.40
53314;DHT22;39202;51.468;7.146;2023-06-22T13:38:56;34.20;39.40
53314;DHT22;39202;51.468;7.146;2023-06-22T13:43:57;34.10;39.40
53314;DHT22;39202;51.468;7.146;2023-06-22T13:48:59;34.10;39.30
53314;DHT22;39202;51.468;7.146;2023-06-22T13:54:02;34.20;39.30
53314;DHT22;39202;51.468;7.146;2023-06-22T13:59:04;34.20;39.40
53314;DHT22;39202;51.468;7.146;2023-06-22T14:04:07;34.20;39.40
53314;DHT22;39202;51.468;7.146;2023-06-22T14:09:10;34.20;39.30
53314;DHT22;39202;51.468;7.146;2023-06-22T14:14:12;34.20;39.40
53314;DHT22;39202;51.468;7.146;2023-06-22T14:19:13;34.20;39.40
53314;DHT22;39202;51.468;7.146;2023-06-22T14:24:17;34.20;39.40
53314;DHT22;39202;51.468;7.146;2023-06-22T14:29:18;34.20;39.40
53314;DHT22;39202;51.468;7.146;2023-06-22T14:34:20;34.30;39.40
53314;DHT22;39202;51.468;7.146;2023-06-22T14:39:23;34.20;39.30
53314;DHT22;39202;51.468;7.146;2023-06-22T14:44:25;34.20;39.30
53314;DHT22;39202;51.468;7.146;2023-06-22T14:49:27;34.20;39.30
53314;DHT22;39202;51.468;7.146;2023-06-22T14:54:30;34.20;39.30
53314;DHT22;39202;51.468;7.146;2023-06-22T14:59:32;34.20;39.30
53314;DHT22;39202;51.468;7.146;2023-06-22T15:04:33;34.20;39.30
53314;DHT22;39202;51.468;7.146;2023-06-22T15:09:36;34.20;39.30
53314;DHT22;39202;51.468;7.146;2023-06-22T15:14:41;34.30;39.40
53314;DHT22;39202;51.468;7.146;2023-06-22T15:19:43;34.20;39.30
53314;DHT22;39202;51.468;7.146;2023-06-22T15:24:46;34.20;39.30
53314;DHT22;39202;51.468;7.146;2023-06-22T15:29:49;34.20;39.30
53314;DHT22;39202;51.468;7.146;2023-06-22T15:34:50;34.20;39.30
53314;DHT22;39202;51.468;7.146;2023-06-22T15:39:55;34.20;39.30
53314;DHT22;39202;51.468;7.146;2023-06-22T15:44:59;34.20;39.30
53314;DHT22;39202;51.468;7.146;2023-06-22T15:50:00;34.20;39.30
53314;DHT22;39202;51.468;7.146;2023-06-22T15:55:04;34.20;39.30
53314;DHT22;39202;51.468;7.146;2023-06-22T16:00:09;34.20;39.20
53314;DHT22;39202;51.468;7.146;2023-06-22T16:05:14;34.20;39.20
53314;DHT22;39202;51.468;7.146;2023-06-22T16:10:17;34.10;39.10
53314;DHT22;39202;51.468;7.146;2023-06-22T16:15:20;34.10;39.10
53314;DHT22;39202;51.468;7.146;2023-06-22T16:20:22;34.10;39.10
53314;DHT22;39202;51.468;7.146;2023-06-22T16:25:25;34.10;39.10
53314;DHT22;39202;51.468;7.146;2023-06-22T16:30:27;34.10;39.10
53314;DHT22;39202;51.468;7.146;2023-06-22T16:35:29;34.10;39.00
53314;DHT22;39202;51.468;7.146;2023-06-22T16:40:34;34.10;39.00
53314;DHT22;39202;51.468;7.146;2023-06-22T16:45:36;34.10;39.00
53314;DHT22;39202;51.468;7.146;2023-06-22T16:50:37;34.10;39.00
53314;DHT22;39202;51.468;7.146;2023-06-22T16:55:41;34.10;39.00
53314;DHT22;39202;51.468;7.146;2023-06-22T17:00:45;34.10;39.00
53314;DHT22;39202;51.468;7.146;2023-06-22T17:05:47;34.10;38.90
53314;DHT22;39202;51.468;7.146;2023-06-22T17:10:50;34.10;39.00
53314;DHT22;39202;51.468;7.146;2023-06-22T17:15:59;34.10;38.90
53314;DHT22;39202;51.468;7.146;2023-06-22T17:21:02;34.10;38.90
53314;DHT22;39202;51.468;7.146;2023-06-22T17:26:06;34.10;38.90
53314;DHT22;39202;51.468;7.146;2023-06-22T17:31:09;34.00;38.80
53314;DHT22;39202;51.468;7.146;2023-06-22T17:36:12;34.00;38.90
53314;DHT22;39202;51.468;7.146;2023-06-22T17:41:16;34.00;39.50
53314;DHT22;39202;51.468;7.146;2023-06-22T17:46:17;34.00;38.80
53314;DHT22;39202;51.468;7.146;2023-06-22T17:51:19;34.00;38.80
53314;DHT22;39202;51.468;7.146;2023-06-22T17:56:23;34.00;38.80
53314;DHT22;39202;51.468;7.146;2023-06-22T18:01:30;34.00;39.50
53314;DHT22;39202;51.468;7.146;2023-06-22T18:06:36;34.00;38.80
53314;DHT22;39202;51.468;7.146;2023-06-22T18:11:43;33.90;39.40
53314;DHT22;39202;51.468;7.146;2023-06-22T18:16:46;33.90;38.70
53314;DHT22;39202;51.468;7.146;2023-06-22T18:21:48;33.90;38.70
53314;DHT22;39202;51.468;7.146;2023-06-22T18:26:52;33.90;38.70
53314;DHT22;39202;51.468;7.146;2023-06-22T18:31:56;33.90;38.70
53314;DHT22;39202;51.468;7.146;2023-06-22T18:36:59;33.90;38.70
53314;DHT22;39202;51.468;7.146;2023-06-22T18:42:04;33.90;38.70
53314;DHT22;39202;51.468;7.146;2023-06-22T18:47:09;33.90;38.70
53314;DHT22;39202;51.468;7.146;2023-06-22T18:52:14;33.90;38.70
53314;DHT22;39202;51.468;7.146;2023-06-22T18:57:22;33.90;38.70
53314;DHT22;39202;51.468;7.146;2023-06-22T19:02:57;33.90;38.70
53314;DHT22;39202;51.468;7.146;2023-06-22T19:07:59;33.90;38.60
53314;DHT22;39202;51.468;7.146;2023-06-22T19:13:44;33.90;38.60
53314;DHT22;39202;51.468;7.146;2023-06-22T19:18:48;33.90;38.70
53314;DHT22;39202;51.468;7.146;2023-06-22T19:23:51;33.90;38.60
53314;DHT22;39202;51.468;7.146;2023-06-22T19:28:55;33.80;38.50
53314;DHT22;39202;51.468;7.146;2023-06-22T19:34:00;33.80;38.60
53314;DHT22;39202;51.468;7.146;2023-06-22T19:39:02;33.80;38.50
53314;DHT22;39202;51.468;7.146;2023-06-22T19:44:06;33.80;38.50
53314;DHT22;39202;51.468;7.146;2023-06-22T19:49:09;33.80;38.50
53314;DHT22;39202;51.468;7.146;2023-06-22T19:54:11;33.80;38.50
53314;DHT22;39202;51.468;7.146;2023-06-22T19:59:16;33.80;38.50
53314;DHT22;39202;51.468;7.146;2023-06-22T20:04:20;33.80;38.50
53314;DHT22;39202;51.468;7.146;2023-06-22T20:09:22;33.80;38.50
53314;DHT22;39202;51.468;7.146;2023-06-22T20:14:29;33.80;38.50
53314;DHT22;39202;51.468;7.146;2023-06-22T20:19:34;33.80;38.50
53314;DHT22;39202;51.468;7.146;2023-06-22T20:24:37;33.80;38.50
53314;DHT22;39202;51.468;7.146;2023-06-22T20:29:41;33.80;38.50
53314;DHT22;39202;51.468;7.146;2023-06-22T20:34:44;33.80;38.40
53314;DHT22;39202;51.468;7.146;2023-06-22T20:39:47;33.80;38.40
53314;DHT22;39202;51.468;7.146;2023-06-22T20:44:50;33.80;38.40
53314;DHT22;39202;51.468;7.146;2023-06-22T20:49:52;33.70;38.40
53314;DHT22;39202;51.468;7.146;2023-06-22T20:54:57;33.70;38.40
53314;DHT22;39202;51.468;7.146;2023-06-22T21:00:01;33.70;38.40
53314;DHT22;39202;51.468;7.146;2023-06-22T21:05:06;33.70;38.40
53314;DHT22;39202;51.468;7.146;2023-06-22T21:10:09;33.70;38.40
53314;DHT22;39202;51.468;7.146;2023-06-22T21:15:12;33.60;38.30
53314;DHT22;39202;51.468;7.146;2023-06-22T21:20:14;33.70;38.40
53314;DHT22;39202;51.468;7.146;2023-06-22T21:25:16;33.70;38.40
53314;DHT22;39202;51.468;7.146;2023-06-22T21:30:20;33.70;38.40
53314;DHT22;39202;51.468;7.146;2023-06-22T21:35:23;33.70;38.40
53314;DHT22;39202;51.468;7.146;2023-06-22T21:40:24;33.70;38.40
53314;DHT22;39202;51.468;7.146;2023-06-22T21:45:27;33.70;38.40
53314;DHT22;39202;51.468;7.146;2023-06-22T21:50:29;33.70;38.40
53314;DHT22;39202;51.468;7.146;2023-06-22T21:55:31;33.70;38.40
53314;DHT22;39202;51.468;7.146;2023-06-22T22:00:34;33.70;38.40
53314;DHT22;39202;51.468;7.146;2023-06-22T22:05:36;33.70;38.40
53314;DHT22;39202;51.468;7.146;2023-06-22T22:10:38;33.70;38.40
53314;DHT22;39202;51.468;7.146;2023-06-22T22:15:41;33.60;38.30
53314;DHT22;39202;51.468;7.146;2023-06-22T22:20:43;33.60;38.30
53314;DHT22;39202;51.468;7.146;2023-06-22T22:25:44;33.60;38.30
53314;DHT22;39202;51.468;7.146;2023-06-22T22:30:48;33.60;38.30
53314;DHT22;39202;51.468;7.146;2023-06-22T22:35:50;33.60;38.30
53314;DHT22;39202;51.468;7.146;2023-06-22T22:40:51;33.60;38.30
53314;DHT22;39202;51.468;7.146;2023-06-22T22:45:55;33.60;38.30
53314;DHT22;39202;51.468;7.146;2023-06-22T22:50:58;33.60;38.30
53314;DHT22;39202;51.468;7.146;2023-06-22T22:56:00;33.60;38.40
53314;DHT22;39202;51.468;7.146;2023-06-22T23:01:03;33.50;38.30
53314;DHT22;39202;51.468;7.146;2023-06-22T23:06:05;33.50;38.30
53314;DHT22;39202;51.468;7.146;2023-06-22T23:11:06;33.50;38.30
53314;DHT22;39202;51.468;7.146;2023-06-22T23:16:10;33.50;38.30
53314;DHT22;39202;51.468;7.146;2023-06-22T23:21:12;33.50;38.30
53314;DHT22;39202;51.468;7.146;2023-06-22T23:26:13;33.50;38.30
53314;DHT22;39202;51.468;7.146;2023-06-22T23:31:17;33.50;38.30
53314;DHT22;39202;51.468;7.146;2023-06-22T23:36:19;33.50;38.30
53314;DHT22;39202;51.468;7.146;2023-06-22T23:41:21;33.50;38.30
53314;DHT22;39202;51.468;7.146;2023-06-22T23:46:27;33.50;38.30
53314;DHT22;39202;51.468;7.146;2023-06-22T23:51:31;33.40;38.20
53314;DHT22;39202;51.468;7.146;2023-06-22T23:56:33;33.40;38.30
